Time;durP1;ratioP1;P1;durP2;ratioP2;P2;SDS_P1;SDS_P2;PMS_P1;PMS_P2;Temp;Humidity;BMP_temperature;BMP_pressure;BME280_temperature;BME280_humidity;BME280_pressure;Samples;Min_cycle;Max_cycle;Signal;HPM_P1;HPM_P2
2022/04/23 00:00:29;;;;;;;18.90;10.20;;;;;;;10.56;92.35;100572.94;5051030;28;20522;-58
2022/04/23 00:02:59;;;;;;;15.75;9.68;;;;;;;10.47;93.30;100571.78;5050660;28;20412;-56
2022/04/23 00:05:29;;;;;;;12.23;9.40;;;;;;;10.49;92.65;100563.78;5051557;28;20503;-57
2022/04/23 00:07:57;;;;;;;16.50;10.10;;;;;;;10.47;93.14;100566.53;5053664;28;20057;-57
2022/04/23 00:10:26;;;;;;;15.80;11.40;;;;;;;10.45;93.64;100562.31;5050992;28;20392;-51
2022/04/23 00:12:55;;;;;;;16.23;10.77;;;;;;;10.50;93.80;100562.84;5049623;28;20459;-48
2022/04/23 00:15:25;;;;;;;16.83;10.73;;;;;;;10.44;94.31;100555.38;5054407;28;20388;-50
2022/04/23 00:17:54;;;;;;;14.57;11.13;;;;;;;10.36;94.80;100555.94;5054790;28;20056;-51
2022/04/23 00:20:24;;;;;;;14.85;9.55;;;;;;;10.37;94.62;100547.06;5054753;28;20045;-48
2022/04/23 00:22:53;;;;;;;15.52;10.27;;;;;;;10.39;94.63;100546.97;5054814;28;20053;-57
2022/04/23 00:25:21;;;;;;;15.13;10.15;;;;;;;10.31;95.43;100552.72;5054688;28;20052;-48
2022/04/23 00:27:50;;;;;;;16.02;10.52;;;;;;;10.27;95.39;100557.34;5054655;28;20061;-49
2022/04/23 00:30:19;;;;;;;14.75;10.35;;;;;;;10.33;95.81;100558.72;5053367;28;20728;-52
2022/04/23 00:32:47;;;;;;;16.38;9.95;;;;;;;10.18;97.29;100554.50;5054626;28;20132;-57
2022/04/23 00:35:15;;;;;;;14.88;9.95;;;;;;;10.23;96.35;100553.25;5054370;28;20113;-57
2022/04/23 00:37:45;;;;;;;15.65;10.98;;;;;;;10.23;97.05;100555.88;5054709;28;20041;-57
2022/04/23 00:40:16;;;;;;;17.67;11.30;;;;;;;10.12;97.68;100555.78;5052833;28;20052;-58
2022/04/23 00:42:46;;;;;;;13.95;10.32;;;;;;;10.15;97.49;100556.38;5047997;28;20128;-51
2022/04/23 00:45:15;;;;;;;17.98;12.13;;;;;;;10.13;97.96;100554.84;5053110;28;20071;-47
2022/04/23 00:47:43;;;;;;;18.58;12.18;;;;;;;10.12;97.78;100553.16;5054307;28;20534;-56
2022/04/23 00:50:13;;;;;;;17.23;11.75;;;;;;;10.13;97.62;100554.84;5050111;28;20053;-60
2022/04/23 00:52:41;;;;;;;17.50;12.35;;;;;;;10.12;97.50;100547.91;5050355;28;20445;-57
2022/04/23 00:55:11;;;;;;;17.85;12.27;;;;;;;10.12;98.48;100558.41;5054223;28;20053;-53
2022/04/23 00:57:40;;;;;;;17.35;12.60;;;;;;;10.07;98.50;100555.25;5054106;28;20120;-51
2022/04/23 01:00:09;;;;;;;19.08;13.73;;;;;;;10.03;98.43;100548.50;5054166;28;20041;-51
2022/04/23 01:02:38;;;;;;;18.15;12.98;;;;;;;9.95;98.67;100547.25;5054053;28;20037;-48
2022/04/23 01:05:09;;;;;;;18.52;13.02;;;;;;;9.96;98.82;100546.28;5054366;28;20072;-48
2022/04/23 01:07:39;;;;;;;19.30;13.82;;;;;;;10.00;99.41;100553.97;5053927;28;20044;-50
2022/04/23 01:10:08;;;;;;;19.95;13.60;;;;;;;10.00;99.31;100543.47;5053987;28;20096;-48
2022/04/23 01:12:39;;;;;;;18.35;13.38;;;;;;;9.97;99.30;100547.97;5053851;28;20425;-51
2022/04/23 01:15:08;;;;;;;21.38;15.23;;;;;;;10.03;99.21;100545.88;5053943;28;20544;-50
2022/04/23 01:17:37;;;;;;;18.58;13.70;;;;;;;10.10;99.14;100539.25;5053825;28;20547;-50
2022/04/23 01:20:09;;;;;;;22.27;14.88;;;;;;;10.04;99.53;100540.53;5053699;28;20049;-51
2022/04/23 01:22:38;;;;;;;20.98;14.85;;;;;;;9.97;99.96;100547.13;5054065;28;20053;-48
2022/04/23 01:25:12;;;;;;;21.55;15.50;;;;;;;10.01;99.05;100546.00;5053557;28;20044;-50
2022/04/23 01:27:42;;;;;;;20.38;15.48;;;;;;;9.93;100.00;100543.03;5047186;28;20044;-51
2022/04/23 01:30:11;;;;;;;21.50;16.05;;;;;;;10.01;99.84;100545.13;5050633;28;20515;-51
2022/04/23 01:32:40;;;;;;;22.25;16.58;;;;;;;9.99;99.97;100553.13;5053601;28;20072;-53
2022/04/23 01:35:10;;;;;;;22.70;15.55;;;;;;;10.01;99.85;100555.63;5053494;28;20071;-53
2022/04/23 01:37:38;;;;;;;23.13;16.40;;;;;;;9.99;100.00;100547.88;5053391;28;20143;-52
2022/04/23 01:40:08;;;;;;;24.05;16.05;;;;;;;10.00;100.00;100553.97;5053467;28;20127;-52
2022/04/23 01:42:36;;;;;;;25.23;18.52;;;;;;;9.99;100.00;100553.13;5053496;28;20495;-50
2022/04/23 01:45:06;;;;;;;26.00;17.70;;;;;;;9.94;100.00;100549.97;5053182;28;20037;-51
2022/04/23 01:47:34;;;;;;;27.48;18.30;;;;;;;10.04;100.00;100558.09;5053090;28;20447;-51
2022/04/23 01:50:03;;;;;;;26.45;17.42;;;;;;;10.03;100.00;100559.03;5049704;28;20049;-49
2022/04/23 01:52:33;;;;;;;26.25;17.73;;;;;;;10.07;100.00;100560.50;5048884;28;20625;-51
2022/04/23 01:55:01;;;;;;;27.90;19.08;;;;;;;10.13;100.00;100565.34;5052705;28;20063;-57
2022/04/23 01:57:29;;;;;;;27.35;18.88;;;;;;;10.18;100.00;100560.59;5052999;28;20040;-57
2022/04/23 01:59:57;;;;;;;26.00;19.02;;;;;;;10.11;100.00;100564.59;5053051;28;20045;-59
2022/04/23 02:02:25;;;;;;;27.55;18.13;;;;;;;10.06;100.00;100558.81;5052786;28;20404;-56
2022/04/23 02:04:54;;;;;;;27.30;19.52;;;;;;;10.10;100.00;100555.03;5052266;28;20483;-58
2022/04/23 02:07:22;;;;;;;28.73;19.02;;;;;;;10.13;100.00;100560.09;5052617;28;20076;-57
2022/04/23 02:09:52;;;;;;;27.23;20.08;;;;;;;10.13;100.00;100557.47;5053021;28;20499;-57
2022/04/23 02:12:20;;;;;;;29.42;18.92;;;;;;;10.11;100.00;100562.81;5052612;28;20048;-58
2022/04/23 02:14:49;;;;;;;26.95;20.70;;;;;;;10.12;100.00;100561.84;5052283;28;20045;-57
2022/04/23 02:17:18;;;;;;;27.67;19.65;;;;;;;10.14;100.00;100559.13;5048999;28;20411;-57
2022/04/23 02:19:46;;;;;;;27.27;19.60;;;;;;;10.17;100.00;100560.72;5048699;28;20105;-58
2022/04/23 02:22:14;;;;;;;25.70;18.58;;;;;;;10.18;100.00;100555.34;5052608;28;20079;-58
2022/04/23 02:24:44;;;;;;;28.58;19.58;;;;;;;10.15;100.00;100558.19;5051880;28;20076;-57
2022/04/23 02:27:13;;;;;;;27.48;19.35;;;;;;;10.17;100.00;100558.06;5052581;28;20059;-58
2022/04/23 02:29:42;;;;;;;29.73;19.45;;;;;;;10.19;100.00;100553.56;5052295;28;20132;-52
2022/04/23 02:32:10;;;;;;;30.50;18.88;;;;;;;10.24;100.00;100554.06;5048456;28;20049;-51
2022/04/23 02:34:39;;;;;;;27.80;18.90;;;;;;;10.24;100.00;100556.72;5049237;28;20423;-48
2022/04/23 02:37:08;;;;;;;27.10;19.75;;;;;;;10.21;100.00;100557.78;5049903;28;20135;-50
2022/04/23 02:39:37;;;;;;;27.05;19.60;;;;;;;10.20;100.00;100560.50;5048199;28;20045;-54
2022/04/23 02:42:06;;;;;;;27.88;20.00;;;;;;;10.25;100.00;100561.03;5051308;28;20041;-58
2022/04/23 02:44:35;;;;;;;26.02;19.05;;;;;;;10.20;100.00;100566.59;5051782;28;20087;-59
2022/04/23 02:47:05;;;;;;;28.02;20.65;;;;;;;10.24;100.00;100562.81;5052055;28;20061;-57
2022/04/23 02:49:34;;;;;;;29.95;20.88;;;;;;;10.15;100.00;100568.69;5052049;28;20056;-57
2022/04/23 02:52:02;;;;;;;27.65;20.55;;;;;;;10.24;100.00;100564.59;5051878;28;20041;-58
2022/04/23 02:54:31;;;;;;;26.25;19.05;;;;;;;10.15;100.00;100564.28;5049400;28;20052;-58
2022/04/23 02:57:00;;;;;;;28.02;19.83;;;;;;;10.20;100.00;100561.34;5045159;28;20049;-58
2022/04/23 02:59:28;;;;;;;28.83;20.30;;;;;;;10.18;100.00;100565.84;5051374;28;20052;-58
2022/04/23 03:01:58;;;;;;;29.08;20.42;;;;;;;10.11;100.00;100556.72;5052246;28;20068;-57
2022/04/23 03:04:27;;;;;;;28.17;21.05;;;;;;;10.09;100.00;100548.94;5051661;28;20057;-58
2022/04/23 03:06:55;;;;;;;30.20;20.35;;;;;;;10.07;100.00;100553.44;5048060;28;20055;-57
2022/04/23 03:09:23;;;;;;;28.40;19.52;;;;;;;10.07;100.00;100549.97;5047560;28;20143;-58
2022/04/23 03:11:53;;;;;;;27.63;19.35;;;;;;;10.09;100.00;100546.31;5051529;28;20087;-58
2022/04/23 03:14:21;;;;;;;28.73;21.70;;;;;;;9.98;100.00;100552.28;5051643;28;20055;-59
2022/04/23 03:16:49;;;;;;;28.45;20.42;;;;;;;9.99;100.00;100550.50;5051490;28;20091;-58
2022/04/23 03:19:19;;;;;;;27.70;19.55;;;;;;;9.96;100.00;100550.72;5050423;28;20052;-58
2022/04/23 03:21:47;;;;;;;28.75;20.30;;;;;;;9.98;100.00;100543.56;5051579;28;20052;-57
2022/04/23 03:24:16;;;;;;;28.20;20.17;;;;;;;9.94;100.00;100547.34;5051646;28;20049;-57
2022/04/23 03:26:46;;;;;;;27.50;19.38;;;;;;;9.98;100.00;100538.31;5050121;28;20072;-57
2022/04/23 03:29:14;;;;;;;27.75;19.83;;;;;;;9.95;100.00;100541.13;5047847;28;20504;-58
2022/04/23 03:31:42;;;;;;;27.58;20.23;;;;;;;9.89;100.00;100546.81;5048960;28;20048;-58
2022/04/23 03:34:11;;;;;;;26.20;20.13;;;;;;;9.89;100.00;100541.56;5051629;28;20440;-58
2022/04/23 03:36:41;;;;;;;26.55;20.23;;;;;;;9.84;100.00;100541.03;5050787;28;20037;-57
2022/04/23 03:39:09;;;;;;;27.40;20.13;;;;;;;9.88;100.00;100540.69;5051532;28;20045;-56
2022/04/23 03:41:37;;;;;;;27.33;20.45;;;;;;;9.87;100.00;100541.66;5051985;28;20560;-57
2022/04/23 03:44:05;;;;;;;26.15;20.63;;;;;;;9.82;100.00;100541.13;5055431;28;20080;-57
2022/04/23 03:46:34;;;;;;;27.27;20.23;;;;;;;9.84;100.00;100543.66;5055291;28;20037;-56
2022/04/23 03:49:02;;;;;;;24.73;19.65;;;;;;;9.78;100.00;100551.00;5053790;28;20053;-57
2022/04/23 03:51:30;;;;;;;26.60;20.40;;;;;;;9.70;100.00;100545.41;5051684;28;20375;-57
2022/04/23 03:54:01;;;;;;;28.40;20.40;;;;;;;9.68;100.00;100549.06;5050646;28;20512;-58
2022/04/23 03:56:30;;;;;;;29.25;20.20;;;;;;;9.60;100.00;100550.44;5055196;28;20597;-58
2022/04/23 03:59:00;;;;;;;30.50;19.88;;;;;;;9.58;100.00;100551.47;5055195;28;20144;-58
2022/04/23 04:01:28;;;;;;;27.83;20.08;;;;;;;9.47;100.00;100549.53;5050144;28;20056;-58
2022/04/23 04:03:57;;;;;;;26.77;20.10;;;;;;;9.39;100.00;100555.28;5051121;28;20159;-57
2022/04/23 04:06:25;;;;;;;28.13;21.55;;;;;;;9.38;100.00;100555.38;5055163;28;20120;-57
2022/04/23 04:08:54;;;;;;;28.05;20.50;;;;;;;9.36;100.00;100544.16;5055019;28;20194;-57
2022/04/23 04:11:23;;;;;;;29.65;21.45;;;;;;;9.27;100.00;100554.31;5051532;28;20515;-57
2022/04/23 04:13:53;;;;;;;27.75;21.38;;;;;;;9.29;100.00;100552.41;5050152;28;20389;-58
2022/04/23 04:16:23;;;;;;;27.35;21.27;;;;;;;9.31;100.00;100544.44;5054625;28;20552;-56
2022/04/23 04:18:51;;;;;;;29.25;21.17;;;;;;;9.30;100.00;100548.03;5055219;28;20369;-48
2022/04/23 04:21:20;;;;;;;27.88;21.35;;;;;;;9.35;100.00;100539.84;5053459;28;20059;-48
2022/04/23 04:23:48;;;;;;;29.70;21.27;;;;;;;9.31;100.00;100541.81;5051405;28;20041;-51
2022/04/23 04:26:17;;;;;;;30.95;21.20;;;;;;;9.34;100.00;100540.78;5048955;28;20076;-52
2022/04/23 04:28:46;;;;;;;29.20;20.08;;;;;;;9.32;100.00;100534.78;5053383;28;20045;-52
2022/04/23 04:34:00;;;;;;;29.67;20.00;;;;;;;9.29;100.00;100526.16;5053212;28;20064;-54
2022/04/23 04:36:29;;;;;;;27.85;19.77;;;;;;;9.26;100.00;100529.00;5052054;28;20041;-53
2022/04/23 04:38:57;;;;;;;31.30;21.20;;;;;;;9.20;100.00;100528.53;5050519;28;20052;-50
2022/04/23 04:41:25;;;;;;;28.25;20.40;;;;;;;9.16;100.00;100527.06;5053790;28;20053;-52
2022/04/23 04:43:55;;;;;;;26.50;19.70;;;;;;;9.12;100.00;100531.66;5052994;28;20099;-53
2022/04/23 04:46:23;;;;;;;27.70;19.20;;;;;;;9.13;100.00;100520.22;5049555;28;20047;-51
2022/04/23 04:48:52;;;;;;;26.73;21.02;;;;;;;9.01;100.00;100523.63;5051162;28;20084;-57
2022/04/23 04:51:20;;;;;;;27.08;20.48;;;;;;;8.99;100.00;100518.50;5054119;28;20417;-58
2022/04/23 04:53:48;;;;;;;27.45;20.27;;;;;;;9.03;100.00;100527.03;5053970;28;20459;-57
2022/04/23 04:56:17;;;;;;;28.00;20.55;;;;;;;8.97;100.00;100522.97;5054389;28;20392;-58
2022/04/23 04:58:46;;;;;;;28.50;21.30;;;;;;;8.95;100.00;100523.09;5054280;28;20041;-57
2022/04/23 05:01:17;;;;;;;25.92;19.45;;;;;;;8.98;100.00;100518.59;5054192;28;20043;-58
2022/04/23 05:03:46;;;;;;;27.15;20.75;;;;;;;8.90;100.00;100526.94;5054135;28;20057;-58
2022/04/23 05:06:16;;;;;;;29.02;20.25;;;;;;;8.92;100.00;100520.66;5054329;28;20437;-58
2022/04/23 05:08:44;;;;;;;29.90;21.17;;;;;;;9.00;100.00;100527.19;5052983;28;20083;-49
2022/04/23 05:11:12;;;;;;;32.28;21.42;;;;;;;8.92;100.00;100527.69;5048237;28;20678;-50
2022/04/23 05:13:41;;;;;;;27.95;21.33;;;;;;;8.98;100.00;100523.84;5050456;28;20127;-48
2022/04/23 05:16:09;;;;;;;29.63;21.13;;;;;;;8.94;100.00;100524.03;5053742;28;20473;-48
2022/04/23 05:18:39;;;;;;;28.38;20.95;;;;;;;8.94;100.00;100529.28;5053517;28;20040;-51
2022/04/23 05:21:07;;;;;;;28.55;20.85;;;;;;;8.98;100.00;100524.66;5052590;28;20158;-51
2022/04/23 05:23:35;;;;;;;28.25;21.35;;;;;;;9.01;100.00;100524.47;5049938;28;20072;-52
2022/04/23 05:26:05;;;;;;;30.63;20.77;;;;;;;8.96;100.00;100516.91;5050276;28;20049;-57
2022/04/23 05:28:34;;;;;;;27.30;20.98;;;;;;;9.02;100.00;100533.19;5053675;28;20128;-57
2022/04/23 05:31:03;;;;;;;30.15;20.70;;;;;;;9.02;100.00;100528.78;5053440;28;20045;-57
2022/04/23 05:33:31;;;;;;;26.80;20.00;;;;;;;8.98;100.00;100524.66;5049255;28;20045;-58
2022/04/23 05:36:01;;;;;;;28.27;20.13;;;;;;;9.01;100.00;100534.13;5049967;28;20128;-57
2022/04/23 05:38:30;;;;;;;25.58;20.75;;;;;;;8.92;100.00;100531.16;5053065;28;20091;-58
2022/04/23 05:40:58;;;;;;;27.17;20.17;;;;;;;8.89;100.00;100523.47;5053076;28;20052;-57
2022/04/23 05:43:26;;;;;;;27.45;20.50;;;;;;;8.93;100.00;100521.50;5053172;28;20053;-57
2022/04/23 05:45:57;;;;;;;26.58;19.42;;;;;;;8.96;100.00;100522.16;5052980;28;20084;-57
2022/04/23 05:48:25;;;;;;;27.05;19.73;;;;;;;8.99;100.00;100523.75;5052835;28;20052;-57
2022/04/23 05:50:54;;;;;;;27.38;19.83;;;;;;;9.06;100.00;100521.56;5052936;28;20041;-57
2022/04/23 05:53:23;;;;;;;26.05;19.42;;;;;;;9.05;100.00;100528.59;5052868;28;20095;-58
2022/04/23 05:55:53;;;;;;;26.30;19.52;;;;;;;9.06;100.00;100526.81;5049592;28;20120;-57
2022/04/23 05:58:21;;;;;;;25.95;20.23;;;;;;;9.11;100.00;100514.25;5047519;28;20403;-57
2022/04/23 06:00:52;;;;;;;26.80;18.83;;;;;;;9.16;100.00;100522.66;5050637;28;20045;-57
2022/04/23 06:03:20;;;;;;;23.25;18.27;;;;;;;9.23;100.00;100525.72;5048901;28;20068;-57
2022/04/23 06:05:48;;;;;;;24.30;18.98;;;;;;;9.25;100.00;100535.19;5050628;28;20088;-58
2022/04/23 06:08:16;;;;;;;26.27;18.88;;;;;;;9.25;100.00;100532.56;5052777;28;20053;-57
2022/04/23 06:10:46;;;;;;;22.08;16.65;;;;;;;9.29;100.00;100538.47;5047877;28;20381;-57
2022/04/23 06:13:15;;;;;;;25.35;18.30;;;;;;;9.38;100.00;100534.38;5046626;28;20496;-57
2022/04/23 06:15:43;;;;;;;25.30;17.50;;;;;;;9.48;100.00;100536.31;5049938;28;20659;-57
2022/04/23 06:18:12;;;;;;;23.60;17.17;;;;;;;9.55;100.00;100530.66;5048235;28;20119;-57
2022/04/23 06:20:40;;;;;;;23.60;17.80;;;;;;;9.53;100.00;100527.28;5050611;28;20045;-57
2022/04/23 06:23:08;;;;;;;22.58;17.58;;;;;;;9.57;100.00;100531.41;5052526;28;20083;-57
2022/04/23 06:25:36;;;;;;;23.23;17.92;;;;;;;9.55;100.00;100530.66;5052415;28;20037;-58
2022/04/23 06:28:10;;;;;;;24.45;17.40;;;;;;;9.60;100.00;100524.16;5052364;28;20435;-57
2022/04/23 06:30:38;;;;;;;20.65;16.80;;;;;;;9.63;100.00;100528.38;5052374;28;20052;-57
2022/04/23 06:33:06;;;;;;;24.08;17.67;;;;;;;9.68;100.00;100528.94;5052312;28;20041;-58
2022/04/23 06:35:35;;;;;;;24.05;16.75;;;;;;;9.81;100.00;100523.69;5051949;28;20053;-57
2022/04/23 06:38:03;;;;;;;20.60;15.88;;;;;;;9.88;100.00;100530.19;5051977;28;20400;-58
2022/04/23 06:40:32;;;;;;;23.33;15.73;;;;;;;9.90;100.00;100528.31;5052031;28;20106;-58
2022/04/23 06:43:00;;;;;;;21.00;16.25;;;;;;;9.97;100.00;100529.59;5052022;28;20052;-58
2022/04/23 06:45:30;;;;;;;22.73;16.08;;;;;;;10.02;100.00;100521.41;5052046;28;20448;-58
2022/04/23 06:48:02;;;;;;;21.45;15.98;;;;;;;10.10;100.00;100531.38;5048855;28;20131;-58
2022/04/23 06:50:32;;;;;;;21.42;16.35;;;;;;;10.13;100.00;100512.78;5047455;28;20555;-58
2022/04/23 06:53:01;;;;;;;21.27;16.40;;;;;;;10.19;100.00;100522.88;5050651;28;20072;-58
2022/04/23 06:55:29;;;;;;;20.88;15.82;;;;;;;10.27;100.00;100517.94;5047116;28;20059;-58
2022/04/23 06:57:58;;;;;;;20.23;15.55;;;;;;;10.39;100.00;100518.91;5046694;28;20496;-51
2022/04/23 07:00:26;;;;;;;22.42;16.52;;;;;;;10.57;100.00;100523.84;5051865;28;20384;-51
2022/04/23 07:03:00;;;;;;;;;;;;;;;10.77;100.00;100522.41;5052149;28;20059;-49
2022/04/23 07:05:29;;;;;;;28.70;17.13;;;;;;;10.96;99.81;100520.16;5051798;28;19931;-58
2022/04/23 07:07:58;;;;;;;21.55;16.38;;;;;;;11.16;97.89;100533.66;5051541;28;20080;-52
2022/04/23 07:10:27;;;;;;;22.83;16.17;;;;;;;11.31;96.49;100522.00;5051594;28;20377;-53
2022/04/23 07:12:56;;;;;;;22.92;17.15;;;;;;;11.49;96.76;100519.81;5051441;28;20037;-50
2022/04/23 07:15:27;;;;;;;22.13;16.13;;;;;;;11.65;94.90;100519.50;5051661;28;20056;-50
2022/04/23 07:17:56;;;;;;;22.23;16.38;;;;;;;11.82;94.12;100517.38;5051568;28;20045;-58
2022/04/23 07:20:26;;;;;;;22.38;16.45;;;;;;;11.92;91.98;100526.28;5051631;28;20045;-50
2022/04/23 07:25:40;;;;;;;21.40;16.25;;;;;;;12.07;90.96;100516.41;5051739;28;20075;-49
2022/04/23 07:28:08;;;;;;;21.10;15.65;;;;;;;12.17;89.62;100519.16;5051262;28;20669;-50
2022/04/23 07:30:37;;;;;;;22.10;16.15;;;;;;;12.32;90.33;100520.63;5047147;28;20738;-58
2022/04/23 07:33:06;;;;;;;20.17;16.13;;;;;;;12.42;88.14;100522.53;5048542;28;20041;-59
2022/04/23 07:38:22;;;;;;;19.42;15.75;;;;;;;12.62;87.77;100513.06;5047573;28;20073;-59
2022/04/23 07:40:51;;;;;;;18.35;14.48;;;;;;;12.79;87.20;100515.22;5046918;28;20049;-59
2022/04/23 07:43:19;;;;;;;20.80;16.67;;;;;;;12.94;86.03;100513.16;5051487;28;20044;-58
2022/04/23 07:45:48;;;;;;;19.60;15.63;;;;;;;13.04;84.84;100515.06;5051317;28;20091;-58
2022/04/23 07:48:16;;;;;;;19.20;15.02;;;;;;;13.25;83.64;100518.59;5050945;28;20124;-57
2022/04/23 07:50:46;;;;;;;19.50;15.30;;;;;;;13.34;82.74;100506.41;5049572;28;20056;-58
2022/04/23 07:53:14;;;;;;;21.75;16.85;;;;;;;13.40;83.00;100516.50;5050909;28;20075;-58
2022/04/23 07:55:42;;;;;;;21.05;16.08;;;;;;;13.53;82.06;100521.63;5051204;28;20114;-59
2022/04/23 07:58:11;;;;;;;20.88;16.00;;;;;;;13.60;81.94;100511.38;5048998;28;20091;-59
2022/04/23 08:00:40;;;;;;;23.90;15.77;;;;;;;13.76;81.39;100511.78;5047073;28;20064;-59
2022/04/23 08:03:09;;;;;;;19.38;15.20;;;;;;;13.92;80.41;100513.97;5049636;28;20091;-55
2022/04/23 08:05:38;;;;;;;18.73;15.30;;;;;;;14.06;79.50;100515.44;5051112;28;20106;-52
2022/04/23 08:08:08;;;;;;;20.13;16.48;;;;;;;14.25;79.20;100504.13;5048678;28;20079;-51
2022/04/23 08:10:37;;;;;;;22.45;16.23;;;;;;;14.24;78.24;100507.75;5046434;28;20049;-53
2022/04/23 08:13:05;;;;;;;19.73;15.77;;;;;;;14.29;78.26;100513.47;5046451;28;20051;-54
2022/04/23 08:15:34;;;;;;;20.77;16.55;;;;;;;14.37;76.79;100503.06;5050646;28;20083;-53
2022/04/23 08:18:02;;;;;;;20.35;16.35;;;;;;;14.27;76.54;100501.34;5050850;28;20488;-49
2022/04/23 08:20:31;;;;;;;21.30;15.73;;;;;;;14.56;77.79;100505.91;5050364;28;20082;-50
2022/04/23 08:22:59;;;;;;;25.00;16.88;;;;;;;14.62;76.25;100492.16;5046088;28;20083;-53
2022/04/23 08:25:29;;;;;;;21.27;17.25;;;;;;;14.80;75.61;100489.72;5052272;28;20460;-51
2022/04/23 08:30:34;;;;;;;21.50;17.10;;;;;;;14.92;75.40;100499.22;5050391;28;20044;-54
2022/04/23 08:30:47;;;;;;;21.45;16.92;;;;;;;15.02;73.92;100494.78;5049896;28;20053;-55
2022/04/23 08:33:16;;;;;;;20.98;16.20;;;;;;;15.20;73.49;100483.50;5054505;28;20048;-54
2022/04/23 08:35:44;;;;;;;21.35;16.20;;;;;;;15.51;72.95;100489.47;5054319;28;20095;-59
2022/04/23 08:38:12;;;;;;;21.88;17.50;;;;;;;15.49;71.69;100485.31;5050695;28;20073;-52
2022/04/23 08:40:44;;;;;;;24.15;18.13;;;;;;;15.40;72.14;100483.50;5049383;28;20124;-51
2022/04/23 08:43:13;;;;;;;22.33;16.70;;;;;;;15.48;71.72;100483.66;5051558;28;20041;-58
2022/04/23 08:45:41;;;;;;;20.25;16.20;;;;;;;15.20;71.41;100478.19;5053636;28;20043;-53
2022/04/23 08:48:11;;;;;;;22.55;17.30;;;;;;;15.36;70.50;100485.59;5049701;28;20045;-58
2022/04/23 08:50:42;;;;;;;22.38;18.15;;;;;;;15.60;70.64;100479.88;5052336;28;20140;-57
2022/04/23 08:53:19;;;;;;;22.27;16.27;;;;;;;15.59;69.78;100467.59;5054081;28;20045;-58
2022/04/23 08:55:59;;;;;;;23.02;17.85;;;;;;;15.93;68.94;100469.78;5051835;28;20056;-58
2022/04/23 08:58:28;;;;;;;20.98;17.40;;;;;;;16.20;67.61;100463.69;5048968;28;20041;-58
2022/04/23 09:00:56;;;;;;;22.13;17.00;;;;;;;16.06;66.89;100466.81;5049483;28;20098;-58
2022/04/23 09:03:25;;;;;;;20.98;15.98;;;;;;;15.97;67.41;100476.47;5053578;28;20061;-58
2022/04/23 09:05:54;;;;;;;20.70;16.33;;;;;;;16.20;66.79;100471.63;5053785;28;20519;-59
2022/04/23 09:08:24;;;;;;;19.92;15.48;;;;;;;16.38;67.32;100468.22;5053822;28;20519;-52
2022/04/23 09:10:54;;;;;;;20.58;15.98;;;;;;;16.55;65.91;100471.88;5053274;28;20041;-53
2022/04/23 09:13:28;;;;;;;22.70;16.05;;;;;;;16.14;65.67;100466.06;5053177;28;20068;-58
2022/04/23 09:24:23;;;;;;;21.88;17.73;;;;;;;17.19;62.22;100480.75;5053220;28;20500;-53
2022/04/23 09:27:05;;;;;;;24.00;16.48;;;;;;;17.32;60.99;100467.06;5053053;28;20539;-51
2022/04/23 09:29:34;;;;;;;21.02;16.25;;;;;;;17.21;61.51;100467.31;5053081;28;20139;-51
2022/04/23 09:32:12;;;;;;;22.80;17.02;;;;;;;17.19;60.98;100474.59;5053142;28;20062;-51
2022/04/23 09:34:41;;;;;;;22.48;16.67;;;;;;;17.15;60.44;100478.53;5049794;28;20048;-53
2022/04/23 09:37:09;;;;;;;21.77;16.73;;;;;;;17.04;60.95;100472.47;5048300;28;20555;-52
2022/04/23 09:39:39;;;;;;;21.70;16.75;;;;;;;17.08;61.30;100464.19;5052723;28;20553;-53
2022/04/23 09:42:17;;;;;;;22.13;17.02;;;;;;;17.33;60.78;100471.41;5051710;28;20048;-52
2022/04/23 09:44:48;;;;;;;23.80;16.42;;;;;;;17.65;60.01;100472.63;5053315;28;20057;-57
2022/04/23 09:47:30;;;;;;;20.95;16.50;;;;;;;17.50;59.20;100461.72;5049595;28;20102;-49
2022/04/23 09:49:59;;;;;;;20.77;16.20;;;;;;;17.42;58.84;100463.50;5048380;28;20049;-58
2022/04/23 09:52:29;;;;;;;22.20;16.40;;;;;;;17.44;58.89;100475.66;5053037;28;20128;-57
2022/04/23 09:55:21;;;;;;;21.88;17.08;;;;;;;17.68;58.47;100469.69;5053289;28;20040;-57
2022/04/23 09:57:49;;;;;;;23.65;18.15;;;;;;;17.39;59.40;100475.25;5052676;28;20126;-57
2022/04/23 10:00:20;;;;;;;23.40;16.85;;;;;;;17.64;57.89;100471.00;5052713;28;20077;-57
2022/04/23 10:02:56;;;;;;;22.08;17.05;;;;;;;17.50;58.24;100469.69;5052961;28;20416;-52
2022/04/23 10:05:28;;;;;;;20.20;16.23;;;;;;;17.44;57.99;100472.13;5051519;28;20106;-58
2022/04/23 10:07:58;;;;;;;19.85;15.50;;;;;;;17.05;58.50;100482.09;5053024;28;20064;-58
2022/04/23 10:10:30;;;;;;;21.27;16.23;;;;;;;17.44;58.85;100462.34;5053006;28;20064;-57
2022/04/23 10:13:01;;;;;;;21.92;16.17;;;;;;;17.50;57.91;100472.34;5052313;28;20441;-58
2022/04/23 10:15:32;;;;;;;21.02;16.58;;;;;;;17.55;56.73;100464.75;5049179;28;20130;-57
2022/04/23 10:18:02;;;;;;;22.83;15.73;;;;;;;17.56;57.74;100468.25;5049727;28;20049;-57
2022/04/23 10:20:31;;;;;;;21.55;16.17;;;;;;;17.40;57.28;100467.13;5052451;28;20044;-57
2022/04/23 10:23:10;;;;;;;21.75;16.48;;;;;;;17.33;58.38;100473.22;5052490;28;20078;-57
2022/04/23 10:25:47;;;;;;;19.42;14.82;;;;;;;17.40;58.64;100469.78;5048307;28;20562;-53
2022/04/23 10:28:17;;;;;;;20.58;14.95;;;;;;;17.91;57.53;100453.19;5048273;28;20045;-53
2022/04/23 10:30:47;;;;;;;17.58;14.68;;;;;;;18.20;56.01;100458.22;5049406;28;20048;-53
2022/04/23 10:33:27;;;;;;;21.42;15.35;;;;;;;18.58;54.57;100457.84;5047882;28;20679;-57
2022/04/23 10:36:08;;;;;;;20.45;15.15;;;;;;;18.47;54.54;100458.16;5052016;28;20388;-57
2022/04/23 10:38:41;;;;;;;20.92;15.80;;;;;;;18.73;54.09;100452.72;5050387;28;20045;-56
2022/04/23 10:41:13;;;;;;;23.42;16.55;;;;;;;18.78;53.25;100446.94;5046245;28;20141;-52
2022/04/23 10:43:48;;;;;;;20.65;15.90;;;;;;;19.30;52.29;100441.34;5050225;28;20076;-54
2022/04/23 10:46:56;;;;;;;24.42;16.65;;;;;;;19.70;51.80;100433.47;5051530;28;20052;-55
2022/04/23 10:49:25;;;;;;;24.13;16.65;;;;;;;19.80;50.29;100444.81;5029397;28;20045;-57
2022/04/23 10:51:54;;;;;;;21.65;16.58;;;;;;;19.50;49.15;100438.34;5025830;28;20128;-57
2022/04/23 10:54:56;;;;;;;22.63;16.42;;;;;;;19.11;50.44;100431.84;5036663;28;20131;-56
2022/04/23 10:57:25;;;;;;;21.75;16.98;;;;;;;18.99;50.56;100436.69;5052019;28;20091;-58
2022/04/23 10:59:53;;;;;;;21.48;16.08;;;;;;;19.21;50.69;100445.00;5047864;28;20122;-56
2022/04/23 11:02:33;;;;;;;22.00;16.70;;;;;;;19.52;49.19;100434.47;5046944;28;20053;-56
2022/04/23 11:13:37;;;;;;;22.05;16.77;;;;;;;20.05;47.85;100424.22;5051614;28;20080;-59
2022/04/23 11:16:14;;;;;;;22.00;17.20;;;;;;;20.16;47.71;100420.34;5051689;28;20377;-58
2022/04/23 11:18:46;;;;;;;25.45;17.63;;;;;;;20.46;46.38;100415.19;5051659;28;20458;-58
2022/04/23 11:21:19;;;;;;;21.85;17.83;;;;;;;20.30;46.66;100416.13;5051576;28;20072;-57
2022/04/23 11:23:48;;;;;;;24.15;16.85;;;;;;;20.74;45.38;100412.91;5051536;28;20099;-59
2022/04/23 11:26:18;;;;;;;21.58;17.25;;;;;;;20.98;45.77;100424.41;5051736;28;20064;-59
2022/04/23 11:28:47;;;;;;;23.08;17.33;;;;;;;20.68;44.80;100413.63;5048712;28;20072;-59
2022/04/23 11:31:17;;;;;;;23.13;16.75;;;;;;;20.94;45.02;100404.41;5046434;28;20454;-59
2022/04/23 11:33:55;;;;;;;26.40;16.65;;;;;;;20.89;44.11;100417.50;5050007;28;20119;-60
2022/04/23 11:36:28;;;;;;;21.63;16.85;;;;;;;20.91;44.16;100418.97;5051462;28;20041;-59
2022/04/23 11:38:57;;;;;;;;;;;;;;;20.99;44.51;100420.75;5052075;28;20049;-59
2022/04/23 11:41:31;;;;;;;21.02;16.90;;;;;;;21.34;43.22;100401.59;5051235;28;19925;-60
2022/04/23 11:44:11;;;;;;;19.67;16.45;;;;;;;21.68;42.69;100397.59;5051574;28;20095;-59
2022/04/23 11:46:46;;;;;;;21.55;17.02;;;;;;;21.88;42.22;100409.44;5051159;28;20543;-59